createdAt,value
2022-09-03T01:08:32.183Z,61.80
2022-09-03T01:09:33.900Z,62.70
2022-09-03T01:10:26.111Z,63.10
2022-09-03T01:11:26.132Z,63.40
2022-09-03T01:12:21.812Z,63.40
2022-09-03T01:13:29.143Z,63.40
2022-09-03T01:14:18.757Z,63.40
2022-09-03T01:15:15.168Z,63.50
2022-09-03T01:16:08.531Z,63.80
2022-09-03T01:17:04.866Z,63.60
2022-09-03T01:17:44.694Z,63.60
2022-09-03T01:18:38.566Z,63.80
2022-09-03T01:19:18.697Z,63.60
2022-09-03T01:20:11.734Z,63.60
2022-09-03T01:20:59.106Z,63.50
2022-09-03T01:21:42.966Z,63.50
2022-09-03T01:22:54.148Z,63.60
2022-09-03T01:24:08.973Z,63.50
2022-09-03T01:24:46.221Z,63.50
2022-09-03T01:25:45.799Z,63.70
2022-09-03T01:26:36.228Z,63.30
2022-09-03T01:27:23.130Z,63.70
2022-09-03T01:28:10.217Z,63.80
2022-09-03T01:29:00.213Z,63.40
2022-09-03T01:29:39.936Z,63.50
2022-09-03T01:30:20.383Z,63.50
2022-09-03T01:31:04.086Z,63.50
2022-09-03T01:31:48.089Z,63.50
2022-09-03T01:32:29.089Z,63.40
2022-09-03T01:33:15.645Z,63.50
2022-09-03T01:33:59.205Z,63.40
2022-09-03T01:34:42.016Z,63.80
2022-09-03T01:35:36.358Z,63.50
2022-09-03T01:36:19.671Z,63.50
2022-09-03T01:37:07.302Z,63.20
2022-09-03T01:38:00.452Z,63.40
2022-09-03T01:38:51.809Z,63.70
2022-09-03T01:39:38.863Z,63.40
2022-09-03T01:40:30.885Z,63.90
2022-09-03T01:41:40.514Z,63.60
2022-09-03T01:42:20.696Z,63.60
2022-09-03T01:43:37.920Z,63.80
2022-09-03T01:44:40.522Z,63.10
2022-09-03T01:45:32.477Z,63.70
2022-09-03T01:46:14.050Z,63.40
2022-09-03T01:46:58.584Z,63.80
2022-09-03T01:48:10.917Z,63.80
2022-09-03T01:49:01.418Z,63.70
2022-09-03T01:49:59.996Z,63.80
2022-09-03T01:50:47.624Z,64.40
2022-09-03T01:51:25.334Z,63.50
2022-09-03T01:52:13.929Z,63.40
2022-09-03T01:52:52.210Z,63.40
2022-09-03T01:53:58.043Z,63.40
2022-09-03T01:54:37.893Z,63.70
2022-09-03T01:55:43.763Z,63.60
2022-09-03T01:56:59.573Z,62.80
2022-09-03T01:57:55.997Z,63.50
2022-09-03T01:58:35.477Z,63.40
2022-09-03T01:59:22.255Z,63.70
2022-09-03T02:00:10.316Z,63.50
2022-09-03T02:00:56.706Z,63.50
2022-09-03T02:01:35.758Z,63.40
2022-09-03T02:02:27.904Z,63.70
2022-09-03T02:03:07.001Z,63.50
2022-09-03T02:03:44.927Z,63.80
2022-09-03T02:04:23.593Z,63.50
2022-09-03T02:05:17.412Z,63.70
2022-09-03T02:05:51.514Z,63.60
2022-09-03T02:06:23.315Z,63.60
2022-09-03T02:07:00.417Z,63.60
2022-09-03T02:07:35.737Z,63.60
2022-09-03T02:08:09.709Z,63.50
2022-09-03T02:08:43.885Z,63.60
2022-09-03T02:09:17.574Z,63.70
2022-09-03T02:09:49.373Z,63.60
2022-09-03T02:10:37.471Z,63.80
2022-09-03T02:11:10.400Z,63.60
2022-09-03T02:11:46.857Z,63.70
2022-09-03T02:12:20.292Z,63.70
2022-09-03T02:12:56.619Z,63.70
2022-09-03T02:13:38.174Z,63.70
2022-09-03T02:14:10.343Z,63.80
2022-09-03T02:14:43.783Z,63.70
2022-09-03T02:15:20.037Z,63.70
2022-09-03T02:15:56.328Z,63.80
2022-09-03T02:16:33.517Z,64.00
2022-09-03T02:17:06.994Z,63.90
2022-09-03T02:17:41.248Z,63.90
2022-09-03T02:18:25.433Z,64.10
2022-09-03T02:19:05.696Z,64.00
2022-09-03T02:19:39.621Z,63.90
2022-09-03T02:20:19.960Z,64.00
2022-09-03T02:20:54.377Z,64.00
2022-09-03T02:21:32.226Z,63.90
2022-09-03T02:22:05.321Z,64.10
2022-09-03T02:22:37.646Z,64.00
2022-09-03T02:23:09.806Z,64.10
2022-09-03T02:23:42.610Z,64.00
2022-09-03T02:24:14.560Z,64.00
2022-09-03T02:24:46.371Z,64.00
2022-09-03T02:25:18.400Z,64.10
2022-09-03T02:25:55.668Z,64.20
2022-09-03T02:26:27.507Z,64.10
2022-09-03T02:26:59.397Z,64.20
2022-09-03T02:27:31.683Z,63.90
2022-09-03T02:28:06.488Z,64.00
2022-09-03T02:28:49.921Z,64.30
2022-09-03T02:29:22.249Z,64.00
2022-09-03T02:29:54.056Z,64.20
2022-09-03T02:30:25.897Z,64.20
2022-09-03T02:30:58.290Z,64.10
2022-09-03T02:31:30.208Z,64.40
2022-09-03T02:32:02.261Z,64.20
2022-09-03T02:32:34.371Z,64.20
2022-09-03T02:33:06.476Z,64.40
2022-09-03T02:33:42.397Z,64.20
2022-09-03T02:34:14.294Z,64.40
2022-09-03T02:34:47.114Z,64.30
2022-09-03T02:35:19.055Z,64.20
2022-09-03T02:35:52.005Z,64.30
2022-09-03T02:36:48.505Z,64.30
2022-09-03T02:37:20.558Z,64.30
2022-09-03T02:37:52.429Z,64.30
2022-09-03T02:38:26.386Z,64.50
2022-09-03T02:38:59.175Z,64.40
2022-09-03T02:39:31.079Z,64.50
2022-09-03T02:40:06.664Z,64.60
2022-09-03T02:40:39.588Z,64.40
2022-09-03T02:41:15.036Z,64.70
2022-09-03T02:41:54.944Z,64.50
2022-09-03T02:42:27.193Z,64.60
2022-09-03T02:42:59.929Z,64.60
2022-09-03T02:43:41.349Z,64.80
2022-09-03T02:44:23.930Z,64.70
2022-09-03T02:45:03.937Z,64.80
2022-09-03T02:45:41.740Z,65.20
2022-09-03T02:46:20.113Z,64.70
2022-09-03T02:47:04.002Z,64.70
2022-09-03T02:47:40.737Z,64.70
2022-09-03T02:48:16.694Z,65.40
2022-09-03T02:48:49.016Z,64.60
2022-09-03T02:49:20.759Z,64.80
2022-09-03T02:49:52.533Z,65.40
2022-09-03T02:50:24.886Z,64.80
2022-09-03T02:50:56.754Z,65.00
2022-09-03T02:51:33.171Z,64.90
2022-09-03T02:52:11.785Z,64.90
2022-09-03T02:52:43.677Z,64.80
2022-09-03T02:53:15.733Z,65.00
2022-09-03T02:53:48.022Z,64.90
2022-09-03T02:54:21.164Z,64.80
2022-09-03T02:54:53.087Z,64.40
2022-09-03T02:55:24.921Z,64.90
2022-09-03T02:56:01.172Z,65.00
2022-09-03T02:56:33.130Z,64.90
2022-09-03T02:57:06.133Z,64.90
2022-09-03T02:57:37.956Z,65.00
2022-09-03T02:58:09.853Z,64.90
2022-09-03T02:58:41.611Z,64.90
2022-09-03T02:59:13.410Z,65.00
2022-09-03T02:59:45.693Z,65.00
2022-09-03T03:00:18.004Z,65.00
2022-09-03T03:00:51.510Z,65.00
2022-09-03T03:01:24.505Z,65.00
2022-09-03T03:01:56.576Z,65.20
2022-09-03T03:02:32.799Z,65.10
2022-09-03T03:03:05.994Z,65.70
2022-09-03T03:03:37.759Z,63.90
2022-09-03T03:04:09.732Z,65.00
2022-09-03T03:04:41.847Z,65.00
2022-09-03T03:05:24.761Z,65.00
2022-09-03T03:06:00.727Z,65.10
2022-09-03T03:06:33.252Z,65.10
2022-09-03T03:07:06.701Z,65.10
2022-09-03T03:07:41.330Z,66.60
2022-09-03T03:08:15.200Z,65.20
2022-09-03T03:08:48.169Z,65.10
2022-09-03T03:09:19.965Z,65.10
2022-09-03T03:09:51.974Z,65.20
2022-09-03T03:10:23.771Z,65.20
2022-09-03T03:10:58.657Z,65.10
2022-09-03T03:11:30.530Z,65.20
2022-09-03T03:12:02.574Z,65.20
2022-09-03T03:12:35.034Z,65.00
2022-09-03T03:13:06.917Z,65.10
2022-09-03T03:13:38.706Z,65.20
2022-09-03T03:14:11.082Z,65.20
2022-09-03T03:14:43.530Z,65.20
2022-09-03T03:15:15.606Z,65.20
2022-09-03T03:15:48.879Z,65.20
2022-09-03T03:16:20.786Z,65.30
2022-09-03T03:16:52.681Z,65.30
2022-09-03T03:17:24.577Z,65.20
2022-09-03T03:17:57.507Z,65.30
2022-09-03T03:18:29.812Z,65.20
2022-09-03T03:19:01.803Z,65.20
2022-09-03T03:19:33.699Z,65.20
2022-09-03T03:20:05.847Z,65.20
2022-09-03T03:20:38.868Z,65.20
2022-09-03T03:21:13.199Z,65.30
2022-09-03T03:21:45.032Z,65.70
2022-09-03T03:22:16.827Z,65.30
2022-09-03T03:22:48.874Z,65.30
2022-09-03T03:23:21.324Z,65.20
2022-09-03T03:23:53.298Z,65.30
2022-09-03T03:24:25.058Z,65.30
2022-09-03T03:24:57.676Z,65.30
2022-09-03T03:25:31.506Z,65.20
2022-09-03T03:26:06.282Z,65.20
2022-09-03T03:26:38.118Z,65.20
2022-09-03T03:27:11.073Z,65.20
2022-09-03T03:27:43.289Z,65.20
2022-09-03T03:28:15.234Z,65.20
2022-09-03T03:28:50.644Z,65.20
2022-09-03T03:29:22.518Z,65.30
2022-09-03T03:29:54.813Z,65.20
2022-09-03T03:30:27.071Z,65.30
2022-09-03T03:30:59.202Z,65.50
2022-09-03T03:31:32.546Z,65.30
2022-09-03T03:32:04.525Z,65.10
2022-09-03T03:32:37.582Z,65.20
2022-09-03T03:33:10.149Z,65.30
2022-09-03T03:33:42.619Z,65.30
2022-09-03T03:34:14.463Z,65.20
2022-09-03T03:34:46.308Z,65.30
2022-09-03T03:35:18.090Z,65.20
2022-09-03T03:35:49.894Z,65.40
2022-09-03T03:36:23.282Z,65.50
2022-09-03T03:36:55.691Z,65.20
2022-09-03T03:37:27.522Z,65.40
2022-09-03T03:38:00.297Z,65.20
2022-09-03T03:38:32.099Z,65.30
2022-09-03T03:39:04.109Z,65.20
2022-09-03T03:39:35.919Z,65.30
2022-09-03T03:40:08.327Z,65.30
2022-09-03T03:40:40.274Z,65.30
2022-09-03T03:41:18.667Z,65.40
2022-09-03T03:41:52.445Z,65.30
2022-09-03T03:42:24.275Z,65.30
2022-09-03T03:42:58.387Z,65.40
2022-09-03T03:43:30.138Z,65.30
2022-09-03T03:44:04.926Z,65.30
2022-09-03T03:44:36.693Z,65.40
2022-09-03T03:45:12.470Z,65.40
2022-09-03T03:45:44.314Z,65.50
2022-09-03T03:46:16.205Z,65.30
2022-09-03T03:46:48.049Z,65.30
2022-09-03T03:47:19.861Z,65.40
2022-09-03T03:47:52.225Z,65.50
2022-09-03T03:48:25.441Z,65.40
2022-09-03T03:48:57.484Z,65.60
2022-09-03T03:49:29.238Z,65.60
2022-09-03T03:50:01.089Z,64.20
2022-09-03T03:50:32.978Z,65.60
2022-09-03T03:51:07.448Z,65.60
2022-09-03T03:51:40.686Z,65.50
2022-09-03T03:52:12.425Z,65.60
2022-09-03T03:52:44.222Z,65.60
2022-09-03T03:53:15.961Z,65.70
2022-09-03T03:53:47.730Z,65.60
2022-09-03T03:54:19.536Z,65.60
2022-09-03T03:54:52.255Z,65.70
2022-09-03T03:55:27.332Z,65.60
2022-09-03T03:56:02.215Z,65.70
2022-09-03T03:56:35.013Z,65.80
2022-09-03T03:57:06.815Z,65.80
2022-09-03T03:57:38.626Z,65.80
2022-09-03T03:58:10.411Z,65.90
2022-09-03T03:58:43.963Z,65.90
2022-09-03T03:59:15.747Z,65.90
2022-09-03T03:59:48.322Z,65.90
2022-09-03T04:00:20.103Z,65.90
2022-09-03T04:00:52.619Z,65.90
2022-09-03T04:01:26.579Z,65.90
2022-09-03T04:01:58.473Z,65.80
2022-09-03T04:02:30.316Z,65.90
2022-09-03T04:03:02.092Z,65.90
2022-09-03T04:03:35.108Z,66.00
2022-09-03T04:04:06.993Z,65.90
2022-09-03T04:04:38.803Z,65.90
2022-09-03T04:05:10.782Z,66.00
2022-09-03T04:05:48.492Z,65.80
2022-09-03T10:28:13.412Z,70.30
2022-09-03T10:37:40.967Z,71.80
2022-09-03T10:42:14.578Z,71.90
2022-09-03T10:47:11.438Z,71.80
2022-09-03T12:21:03.434Z,64.80
2022-09-03T12:21:40.084Z,64.20
2022-09-03T12:22:16.484Z,64.50
2022-09-03T12:22:48.302Z,64.90
2022-09-03T12:23:28.268Z,64.70
2022-09-03T12:24:02.954Z,65.20
2022-09-03T12:24:38.445Z,65.10
2022-09-03T12:25:15.306Z,65.50
2022-09-03T12:25:47.587Z,66.30
2022-09-03T13:14:48.492Z,58.90
2022-09-03T13:55:35.746Z,58.30
2022-09-03T13:56:28.980Z,57.20
2022-09-03T13:57:06.693Z,57.50
2022-09-03T13:58:02.184Z,57.80
2022-09-03T13:59:00.113Z,56.90
2022-09-03T13:59:51.716Z,57.70
2022-09-03T14:00:38.417Z,57.80
2022-09-03T14:01:40.642Z,57.60
2022-09-03T14:02:42.730Z,57.40
2022-09-03T14:03:48.592Z,57.40
2022-09-03T14:04:51.740Z,57.10
2022-09-03T14:05:26.493Z,56.40
2022-09-03T14:06:17.040Z,56.10
2022-09-03T14:07:06.423Z,56.90
2022-09-03T14:07:45.307Z,57.00
2022-09-03T14:08:48.399Z,58.00
2022-09-03T14:09:41.755Z,56.70
2022-09-03T14:10:35.298Z,56.40
2022-09-03T14:11:40.471Z,57.20
2022-09-03T14:12:25.384Z,57.20
2022-09-03T14:13:06.001Z,57.20
2022-09-03T14:13:46.212Z,57.20
2022-09-03T14:14:30.083Z,57.10
2022-09-03T14:15:19.768Z,57.30
2022-09-03T14:16:15.568Z,57.10
2022-09-03T14:17:24.705Z,56.60
2022-09-03T14:18:02.998Z,56.60
2022-09-03T14:18:54.427Z,56.80
2022-09-03T14:19:45.463Z,56.90
2022-09-03T14:20:38.430Z,57.00
2022-09-03T14:21:19.634Z,56.80
2022-09-03T14:22:05.583Z,56.40
2022-09-03T14:22:45.940Z,56.10
2022-09-03T14:23:26.851Z,55.90
2022-09-03T14:24:09.251Z,57.00
2022-09-03T14:24:57.645Z,56.90
2022-09-03T14:25:29.998Z,56.80
2022-09-03T14:26:06.516Z,56.00
2022-09-03T14:26:54.274Z,55.90
2022-09-03T14:27:29.147Z,56.10
2022-09-03T14:28:34.467Z,55.80
2022-09-03T14:29:17.211Z,56.70
2022-09-03T14:29:58.690Z,57.30
2022-09-03T14:31:02.391Z,57.50
2022-09-03T14:32:11.008Z,57.90
2022-09-03T14:32:59.084Z,58.50
2022-09-03T14:33:42.662Z,58.80
2022-09-03T14:34:23.382Z,59.10
2022-09-03T14:35:19.799Z,59.40
2022-09-03T14:36:22.431Z,59.50
2022-09-03T14:37:09.191Z,59.70
2022-09-03T14:38:07.853Z,59.90
2022-09-03T14:38:57.733Z,60.10
2022-09-03T14:39:48.231Z,60.20
2022-09-03T14:40:44.875Z,60.30
2022-09-03T14:41:57.045Z,60.50
2022-09-03T14:42:44.577Z,60.80
2022-09-03T14:43:53.503Z,61.10
2022-09-03T14:44:53.384Z,61.10
2022-09-03T14:45:43.244Z,61.50
2022-09-03T14:46:21.225Z,62.70
2022-09-03T14:47:03.210Z,62.50
2022-09-03T14:48:12.077Z,62.40
2022-09-03T14:49:15.942Z,62.10
2022-09-03T14:50:02.590Z,62.00
2022-09-03T14:53:10.365Z,61.60
2022-09-03T14:53:42.129Z,61.60
2022-09-03T14:54:38.773Z,60.50
2022-09-03T14:55:24.702Z,61.40
2022-09-03T14:55:56.526Z,61.20
2022-09-03T14:56:54.192Z,61.50
2022-09-03T14:57:40.002Z,61.80
2022-09-03T14:58:42.569Z,61.20
2022-09-03T14:59:51.908Z,61.00
2022-09-03T15:00:47.138Z,61.20
2022-09-03T15:01:31.543Z,61.10
2022-09-03T15:02:31.085Z,61.20
2022-09-03T15:03:22.478Z,61.20
2022-09-03T15:04:15.487Z,61.10
2022-09-03T15:05:19.643Z,61.00
2022-09-03T15:06:31.037Z,61.20
2022-09-03T15:07:21.975Z,61.30
2022-09-03T15:08:18.129Z,60.70
2022-09-03T15:08:56.092Z,61.10
2022-09-03T15:09:44.271Z,61.20
2022-09-03T15:10:36.661Z,61.20
2022-09-03T15:11:24.242Z,61.40
2022-09-03T15:12:17.933Z,61.30
2022-09-03T15:12:59.086Z,61.30
2022-09-03T15:13:35.782Z,61.40
2022-09-03T15:14:18.758Z,61.40
2022-09-03T15:14:57.343Z,61.40
2022-09-03T15:15:44.058Z,61.40
2022-09-03T15:16:35.367Z,61.50
2022-09-03T15:17:40.178Z,61.50
2022-09-03T15:18:50.068Z,61.50
2022-09-03T15:19:48.858Z,61.40
2022-09-03T15:20:42.133Z,61.60
2022-09-03T15:21:48.426Z,61.60
2022-09-03T15:23:05.960Z,61.60
2022-09-03T15:23:55.864Z,61.50
2022-09-03T15:24:43.074Z,61.60
2022-09-03T15:25:39.245Z,61.50
2022-09-03T15:26:37.122Z,61.50
2022-09-03T15:27:24.195Z,61.50
2022-09-03T15:28:25.382Z,61.50
2022-09-03T15:29:18.133Z,61.40
2022-09-03T15:29:58.477Z,61.40
2022-09-03T15:31:01.959Z,61.40
2022-09-03T15:31:45.645Z,61.30
2022-09-03T15:32:33.205Z,61.30
2022-09-03T15:33:17.557Z,61.20
2022-09-03T15:34:04.368Z,61.30
2022-09-03T15:34:46.904Z,61.20
2022-09-03T15:35:38.364Z,61.80
2022-09-03T15:36:28.466Z,61.30
2022-09-03T15:37:09.473Z,61.20
2022-09-03T15:37:48.972Z,61.30
2022-09-03T15:38:52.627Z,61.30
2022-09-03T15:39:35.524Z,61.30
2022-09-03T15:40:07.389Z,61.30
2022-09-03T15:40:55.970Z,61.40
2022-09-03T15:41:49.049Z,61.30
2022-09-03T15:42:28.690Z,61.20
2022-09-03T15:43:21.839Z,61.30
2022-09-03T15:43:59.665Z,61.30
2022-09-03T15:44:45.879Z,61.40
2022-09-03T15:45:41.724Z,61.30
2022-09-03T15:46:51.023Z,61.30
2022-09-03T15:47:51.785Z,61.40
2022-09-03T15:48:50.708Z,61.40
2022-09-03T15:49:47.322Z,62.00
2022-09-03T15:50:50.327Z,61.50
2022-09-03T15:51:43.314Z,61.40
2022-09-03T15:52:27.578Z,61.50
2022-09-03T15:53:25.412Z,62.30
2022-09-03T15:54:03.356Z,61.50
2022-09-03T15:54:56.483Z,61.50
2022-09-03T15:55:43.483Z,61.50
2022-09-03T15:56:24.860Z,61.50
2022-09-03T15:57:09.063Z,61.50
2022-09-03T15:57:55.382Z,61.50
2022-09-03T15:58:50.717Z,61.50
2022-09-03T15:59:51.303Z,61.50
2022-09-03T16:00:23.505Z,61.50
2022-09-03T16:01:04.552Z,61.60
2022-09-03T16:01:57.052Z,61.60
2022-09-03T16:02:46.432Z,61.70
2022-09-03T16:03:33.094Z,61.70
2022-09-03T16:04:17.105Z,61.70
2022-09-03T16:04:54.807Z,61.70
2022-09-03T16:05:56.699Z,61.70
2022-09-03T16:06:57.411Z,61.70
2022-09-03T16:07:42.347Z,61.90
2022-09-03T16:08:33.931Z,61.80
2022-09-03T16:09:20.211Z,61.90
2022-09-03T16:10:24.343Z,61.80
2022-09-03T16:11:48.747Z,61.90
2022-09-03T16:12:34.646Z,61.80
2022-09-03T16:13:17.654Z,61.80
2022-09-03T16:14:04.573Z,61.80
2022-09-03T16:14:44.717Z,61.90
2022-09-03T16:15:23.263Z,62.00
2022-09-03T16:16:05.541Z,61.90
2022-09-03T16:17:13.753Z,62.00
2022-09-03T16:18:27.434Z,62.00
2022-09-03T16:19:26.114Z,62.00
2022-09-03T16:20:23.772Z,62.00
2022-09-03T16:21:01.173Z,62.00
2022-09-03T16:21:43.250Z,61.90
2022-09-03T16:22:27.886Z,61.90
2022-09-03T16:23:31.462Z,61.90
2022-09-03T16:24:18.729Z,61.90
2022-09-03T16:25:07.182Z,62.50
2022-09-03T16:26:07.926Z,61.80
2022-09-03T16:27:01.287Z,61.80
2022-09-03T16:28:06.924Z,61.70
2022-09-03T16:28:52.085Z,61.70
2022-09-03T16:29:30.864Z,61.70
2022-09-03T16:30:05.574Z,61.80
2022-09-03T16:30:40.135Z,61.80
2022-09-03T16:31:25.132Z,61.80
2022-09-03T16:32:23.823Z,61.80
2022-09-03T16:33:13.641Z,61.80
2022-09-03T16:34:18.679Z,61.90
2022-09-03T16:35:10.046Z,63.00
2022-09-03T16:36:09.440Z,61.80
2022-09-03T16:37:07.707Z,61.80
2022-09-03T16:38:03.630Z,61.70
2022-09-03T16:39:07.752Z,61.80
2022-09-03T16:39:55.629Z,61.80
2022-09-03T16:40:54.898Z,61.60
2022-09-03T16:41:47.326Z,61.90
2022-09-03T16:42:22.107Z,62.00
2022-09-03T16:43:40.011Z,62.00
2022-09-03T16:44:34.134Z,62.00
2022-09-03T16:45:17.794Z,62.10
2022-09-03T16:45:49.578Z,62.10
2022-09-03T16:47:00.765Z,62.10
2022-09-03T16:47:38.515Z,62.10
2022-09-03T16:48:22.026Z,62.20
2022-09-03T16:49:13.223Z,62.20
2022-09-03T16:50:06.520Z,62.20
2022-09-03T16:50:58.023Z,62.30
2022-09-03T16:51:59.845Z,62.20
2022-09-03T16:53:08.839Z,62.20
2022-09-03T16:54:05.792Z,62.30
2022-09-03T16:54:57.192Z,62.30
2022-09-03T16:55:57.565Z,62.30
2022-09-03T16:56:51.019Z,62.40
2022-09-03T16:57:35.717Z,62.40
2022-09-03T16:58:30.903Z,62.40
2022-09-03T16:59:20.921Z,62.30
2022-09-03T17:00:03.836Z,62.30
2022-09-03T17:01:02.066Z,62.30
2022-09-03T17:01:53.906Z,62.40
2022-09-03T17:02:43.724Z,62.30
2022-09-03T17:03:42.109Z,62.40
2022-09-03T17:04:22.373Z,62.40
2022-09-03T17:05:02.236Z,62.40
2022-09-03T17:06:15.638Z,62.40
2022-09-03T17:07:38.766Z,62.40
2022-09-03T17:08:27.381Z,62.40
2022-09-03T17:09:26.452Z,62.50
2022-09-03T17:10:23.003Z,62.50
2022-09-03T17:11:02.694Z,62.50
2022-09-03T17:11:59.387Z,63.10
2022-09-03T17:12:46.209Z,62.60
2022-09-03T17:13:39.684Z,62.60
2022-09-03T17:14:50.230Z,62.60
2022-09-03T17:15:39.815Z,62.60
2022-09-03T17:16:31.971Z,62.60
2022-09-03T17:17:35.098Z,62.60
2022-09-03T17:18:33.183Z,62.60
2022-09-03T17:19:35.434Z,62.60
2022-09-03T17:20:17.784Z,62.60
2022-09-03T17:21:14.585Z,62.60
2022-09-03T17:22:10.620Z,62.60
2022-09-03T17:23:07.305Z,62.50
2022-09-03T17:24:03.337Z,62.60
2022-09-03T17:25:00.290Z,62.60
2022-09-03T17:25:37.261Z,62.50
2022-09-03T17:26:29.938Z,62.60
2022-09-03T17:27:29.591Z,62.60
2022-09-03T17:28:12.565Z,62.60
2022-09-03T17:28:56.177Z,62.60
2022-09-03T17:29:35.126Z,62.60
2022-09-03T17:30:18.834Z,62.60
2022-09-03T17:31:03.431Z,62.50
2022-09-03T17:32:15.433Z,62.60
2022-09-03T17:33:24.409Z,62.60
2022-09-03T17:34:19.553Z,62.50
2022-09-03T17:34:54.311Z,62.50
2022-09-03T17:35:38.294Z,62.60
2022-09-03T17:36:18.681Z,62.60
2022-09-03T17:37:08.183Z,62.60
2022-09-03T17:38:11.360Z,62.60
2022-09-03T17:39:00.992Z,62.60
2022-09-03T17:40:13.964Z,62.50
2022-09-03T17:41:04.561Z,62.60
2022-09-03T17:41:42.129Z,62.60
2022-09-03T17:42:25.376Z,62.60
2022-09-03T17:43:22.383Z,62.60
2022-09-03T17:44:14.814Z,62.60
2022-09-03T17:45:04.998Z,62.60
2022-09-03T17:46:07.301Z,62.60
2022-09-03T17:46:57.856Z,62.60
2022-09-03T21:42:22.699Z,64.80
2022-09-03T23:47:14.175Z,60.10
2022-09-03T23:48:42.694Z,60.70
2022-09-03T23:49:17.548Z,61.30
2022-09-03T23:50:18.134Z,60.30
2022-09-03T23:51:36.613Z,60.80
2022-09-03T23:52:32.906Z,61.00
2022-09-03T23:53:24.670Z,62.00
2022-09-03T23:54:13.192Z,61.20
2022-09-03T23:54:49.118Z,61.50
2022-09-03T23:55:52.292Z,61.50
2022-09-03T23:56:47.586Z,61.20
2022-09-03T23:57:38.279Z,61.20
2022-09-03T23:58:30.298Z,61.40
2022-09-03T23:59:33.105Z,61.30
